ESOE/ORB METAR and TAF weather

Enter ICAO airport designator
Station Type Date Time Source
ESOE METAR 2019/05/25 09:20 UTC NOAA

ESOE 250920Z 28006KT 240V320 9999 FEW030 BKN040 14/08 Q1006


Station Type Date Time Source
ESOE Decoded METAR 2019/05/25 09:20 UTC NOAA

Orebro Private , Sweden (ESOE) 59-14N 015-03E
May 25, 2019 - 05:20 AM EDT / 2019.05.25 0920 UTC
Wind: from the W (280 degrees) at 7 MPH (6 KT) (direction variable):0
Visibility: greater than 7 mile(s):0
Sky conditions: mostly cloudy
Temperature: 57 F (14 C)
Dew Point: 46 F (8 C)
Relative Humidity: 67%
Pressure (altimeter): 29.71 in. Hg (1006 hPa)
ob: ESOE 250920Z 28006KT 240V320 9999 FEW030 BKN040 14/08 Q1006
cycle: 9

Station Type Date Time Source
ESOE TAF 2016/03/16 04:36 UTC NOAA

TAF TAF ESOE 160330Z 1604/1624 23005KT 9000 BR NSC PROB40 1604/1607 1200 BR

Example: see airport list